sensor_id;sensor_type;location;lat;lon;timestamp;temperature;humidity
37456;DHT22;23316;50.718;7.328;2023-08-07T00:01:30;15.40;75.30
37456;DHT22;23316;50.718;7.328;2023-08-07T00:03:57;15.40;75.20
37456;DHT22;23316;50.718;7.328;2023-08-07T00:06:24;15.40;75.30
37456;DHT22;23316;50.718;7.328;2023-08-07T00:08:51;15.50;75.10
37456;DHT22;23316;50.718;7.328;2023-08-07T00:11:18;15.50;74.70
37456;DHT22;23316;50.718;7.328;2023-08-07T00:13:47;15.50;74.80
37456;DHT22;23316;50.718;7.328;2023-08-07T00:16:14;15.50;74.20
37456;DHT22;23316;50.718;7.328;2023-08-07T00:18:42;15.50;74.10
37456;DHT22;23316;50.718;7.328;2023-08-07T00:21:09;15.50;74.10
37456;DHT22;23316;50.718;7.328;2023-08-07T00:23:36;15.50;74.10
37456;DHT22;23316;50.718;7.328;2023-08-07T00:26:03;15.50;74.20
37456;DHT22;23316;50.718;7.328;2023-08-07T00:28:31;15.60;74.10
37456;DHT22;23316;50.718;7.328;2023-08-07T00:30:59;15.50;73.10
37456;DHT22;23316;50.718;7.328;2023-08-07T00:33:26;15.50;73.30
37456;DHT22;23316;50.718;7.328;2023-08-07T00:35:54;15.50;73.30
37456;DHT22;23316;50.718;7.328;2023-08-07T00:38:21;15.50;73.30
37456;DHT22;23316;50.718;7.328;2023-08-07T00:40:48;15.50;73.40
37456;DHT22;23316;50.718;7.328;2023-08-07T00:43:15;15.60;73.30
37456;DHT22;23316;50.718;7.328;2023-08-07T00:45:43;15.50;72.90
37456;DHT22;23316;50.718;7.328;2023-08-07T00:48:14;15.50;73.00
37456;DHT22;23316;50.718;7.328;2023-08-07T00:50:44;15.60;73.20
37456;DHT22;23316;50.718;7.328;2023-08-07T00:53:13;15.50;73.30
37456;DHT22;23316;50.718;7.328;2023-08-07T00:55:40;15.50;73.20
37456;DHT22;23316;50.718;7.328;2023-08-07T00:58:08;15.50;73.40
37456;DHT22;23316;50.718;7.328;2023-08-07T01:00:35;15.50;73.50
37456;DHT22;23316;50.718;7.328;2023-08-07T01:03:24;15.50;73.40
37456;DHT22;23316;50.718;7.328;2023-08-07T01:05:57;15.50;73.40
37456;DHT22;23316;50.718;7.328;2023-08-07T01:08:26;15.50;73.60
37456;DHT22;23316;50.718;7.328;2023-08-07T01:11:10;15.40;73.50
37456;DHT22;23316;50.718;7.328;2023-08-07T01:13:56;15.40;74.30
37456;DHT22;23316;50.718;7.328;2023-08-07T01:16:37;15.50;73.50
37456;DHT22;23316;50.718;7.328;2023-08-07T01:19:22;15.50;73.50
37456;DHT22;23316;50.718;7.328;2023-08-07T01:22:04;15.50;73.30
37456;DHT22;23316;50.718;7.328;2023-08-07T01:24:35;15.50;73.30
37456;DHT22;23316;50.718;7.328;2023-08-07T01:27:12;15.50;73.30
37456;DHT22;23316;50.718;7.328;2023-08-07T01:29:50;15.50;73.40
37456;DHT22;23316;50.718;7.328;2023-08-07T01:32:24;15.40;73.30
37456;DHT22;23316;50.718;7.328;2023-08-07T01:34:57;15.40;73.40
37456;DHT22;23316;50.718;7.328;2023-08-07T01:37:29;15.40;73.40
37456;DHT22;23316;50.718;7.328;2023-08-07T01:40:01;15.40;73.60
37456;DHT22;23316;50.718;7.328;2023-08-07T01:42:32;15.40;73.80
37456;DHT22;23316;50.718;7.328;2023-08-07T01:45:00;15.40;73.60
37456;DHT22;23316;50.718;7.328;2023-08-07T01:47:27;15.40;73.50
37456;DHT22;23316;50.718;7.328;2023-08-07T01:49:55;15.40;73.30
37456;DHT22;23316;50.718;7.328;2023-08-07T01:52:25;15.40;73.00
37456;DHT22;23316;50.718;7.328;2023-08-07T01:54:55;15.40;72.90
37456;DHT22;23316;50.718;7.328;2023-08-07T01:57:22;15.40;73.00
37456;DHT22;23316;50.718;7.328;2023-08-07T01:59:50;15.40;73.00
37456;DHT22;23316;50.718;7.328;2023-08-07T02:02:17;15.40;72.80
37456;DHT22;23316;50.718;7.328;2023-08-07T02:04:45;15.50;73.50
37456;DHT22;23316;50.718;7.328;2023-08-07T02:07:12;15.40;72.80
37456;DHT22;23316;50.718;7.328;2023-08-07T02:09:39;15.50;73.10
37456;DHT22;23316;50.718;7.328;2023-08-07T02:12:08;15.50;73.20
37456;DHT22;23316;50.718;7.328;2023-08-07T02:14:36;15.40;72.90
37456;DHT22;23316;50.718;7.328;2023-08-07T02:17:04;15.40;73.00
37456;DHT22;23316;50.718;7.328;2023-08-07T02:19:34;15.40;73.20
37456;DHT22;23316;50.718;7.328;2023-08-07T02:22:03;15.40;73.00
37456;DHT22;23316;50.718;7.328;2023-08-07T02:24:31;15.40;73.10
37456;DHT22;23316;50.718;7.328;2023-08-07T02:27:12;15.40;72.90
37456;DHT22;23316;50.718;7.328;2023-08-07T02:29:45;15.40;73.00
37456;DHT22;23316;50.718;7.328;2023-08-07T02:32:16;15.30;72.60
37456;DHT22;23316;50.718;7.328;2023-08-07T02:34:45;15.30;72.80
37456;DHT22;23316;50.718;7.328;2023-08-07T02:37:13;15.30;73.00
37456;DHT22;23316;50.718;7.328;2023-08-07T02:39:40;15.30;73.30
37456;DHT22;23316;50.718;7.328;2023-08-07T02:42:13;15.30;73.30
37456;DHT22;23316;50.718;7.328;2023-08-07T02:44:47;15.20;73.50
37456;DHT22;23316;50.718;7.328;2023-08-07T02:47:14;15.20;73.70
37456;DHT22;23316;50.718;7.328;2023-08-07T02:49:42;15.20;74.00
37456;DHT22;23316;50.718;7.328;2023-08-07T02:52:09;15.30;74.10
37456;DHT22;23316;50.718;7.328;2023-08-07T02:54:37;15.30;74.10
37456;DHT22;23316;50.718;7.328;2023-08-07T02:57:04;15.30;74.20
37456;DHT22;23316;50.718;7.328;2023-08-07T02:59:33;15.30;73.90
37456;DHT22;23316;50.718;7.328;2023-08-07T03:02:01;15.30;73.60
37456;DHT22;23316;50.718;7.328;2023-08-07T03:07:14;15.30;73.60
37456;DHT22;23316;50.718;7.328;2023-08-07T03:09:45;15.30;73.50
37456;DHT22;23316;50.718;7.328;2023-08-07T03:12:13;15.20;73.30
37456;DHT22;23316;50.718;7.328;2023-08-07T03:14:55;15.20;73.40
37456;DHT22;23316;50.718;7.328;2023-08-07T03:17:23;15.20;73.40
37456;DHT22;23316;50.718;7.328;2023-08-07T03:22:59;15.20;73.70
37456;DHT22;23316;50.718;7.328;2023-08-07T03:25:36;15.20;73.80
37456;DHT22;23316;50.718;7.328;2023-08-07T03:28:07;15.20;74.20
37456;DHT22;23316;50.718;7.328;2023-08-07T03:30:42;15.20;74.10
37456;DHT22;23316;50.718;7.328;2023-08-07T03:33:21;15.20;74.30
37456;DHT22;23316;50.718;7.328;2023-08-07T03:35:49;15.20;74.30
37456;DHT22;23316;50.718;7.328;2023-08-07T03:38:18;15.20;74.40
37456;DHT22;23316;50.718;7.328;2023-08-07T03:41:00;15.10;74.30
37456;DHT22;23316;50.718;7.328;2023-08-07T03:43:31;15.10;74.50
37456;DHT22;23316;50.718;7.328;2023-08-07T03:46:09;15.10;74.60
37456;DHT22;23316;50.718;7.328;2023-08-07T03:48:48;15.10;74.90
37456;DHT22;23316;50.718;7.328;2023-08-07T03:51:18;15.10;74.70
37456;DHT22;23316;50.718;7.328;2023-08-07T03:54:00;15.10;74.80
37456;DHT22;23316;50.718;7.328;2023-08-07T03:59:25;15.10;74.80
37456;DHT22;23316;50.718;7.328;2023-08-07T04:01:53;15.10;74.90
37456;DHT22;23316;50.718;7.328;2023-08-07T04:04:21;15.00;75.10
37456;DHT22;23316;50.718;7.328;2023-08-07T04:06:48;15.10;75.30
37456;DHT22;23316;50.718;7.328;2023-08-07T04:09:15;15.10;75.20
37456;DHT22;23316;50.718;7.328;2023-08-07T04:11:43;15.00;75.10
37456;DHT22;23316;50.718;7.328;2023-08-07T04:14:10;15.00;75.20
37456;DHT22;23316;50.718;7.328;2023-08-07T04:16:38;15.00;75.60
37456;DHT22;23316;50.718;7.328;2023-08-07T04:19:07;15.00;75.60
37456;DHT22;23316;50.718;7.328;2023-08-07T04:21:34;15.00;75.50
37456;DHT22;23316;50.718;7.328;2023-08-07T04:24:01;15.00;75.50
37456;DHT22;23316;50.718;7.328;2023-08-07T04:26:33;15.00;75.50
37456;DHT22;23316;50.718;7.328;2023-08-07T04:29:01;15.00;75.60
37456;DHT22;23316;50.718;7.328;2023-08-07T04:31:28;15.00;75.60
37456;DHT22;23316;50.718;7.328;2023-08-07T04:33:57;15.00;75.60
37456;DHT22;23316;50.718;7.328;2023-08-07T04:36:25;14.90;75.70
37456;DHT22;23316;50.718;7.328;2023-08-07T04:38:53;14.90;75.90
37456;DHT22;23316;50.718;7.328;2023-08-07T04:41:21;14.90;76.00
37456;DHT22;23316;50.718;7.328;2023-08-07T04:43:49;14.90;76.20
37456;DHT22;23316;50.718;7.328;2023-08-07T04:46:16;14.90;76.30
37456;DHT22;23316;50.718;7.328;2023-08-07T04:48:43;14.90;76.60
37456;DHT22;23316;50.718;7.328;2023-08-07T04:51:10;14.90;76.60
37456;DHT22;23316;50.718;7.328;2023-08-07T04:53:39;14.90;76.60
37456;DHT22;23316;50.718;7.328;2023-08-07T04:56:06;14.90;76.70
37456;DHT22;23316;50.718;7.328;2023-08-07T04:58:33;14.90;76.90
37456;DHT22;23316;50.718;7.328;2023-08-07T05:01:01;14.90;77.00
37456;DHT22;23316;50.718;7.328;2023-08-07T05:03:28;14.90;76.90
37456;DHT22;23316;50.718;7.328;2023-08-07T05:05:59;14.90;77.00
37456;DHT22;23316;50.718;7.328;2023-08-07T05:08:27;14.90;76.90
37456;DHT22;23316;50.718;7.328;2023-08-07T05:10:56;14.90;76.90
37456;DHT22;23316;50.718;7.328;2023-08-07T05:13:23;14.90;76.90
37456;DHT22;23316;50.718;7.328;2023-08-07T05:15:50;14.90;76.90
37456;DHT22;23316;50.718;7.328;2023-08-07T05:18:18;14.90;77.10
37456;DHT22;23316;50.718;7.328;2023-08-07T05:20:45;14.90;77.10
37456;DHT22;23316;50.718;7.328;2023-08-07T05:23:12;14.90;77.10
37456;DHT22;23316;50.718;7.328;2023-08-07T05:25:40;14.90;77.20
37456;DHT22;23316;50.718;7.328;2023-08-07T05:28:10;14.90;77.00
37456;DHT22;23316;50.718;7.328;2023-08-07T05:30:38;14.90;76.90
37456;DHT22;23316;50.718;7.328;2023-08-07T05:33:06;14.90;77.00
37456;DHT22;23316;50.718;7.328;2023-08-07T05:35:37;14.90;77.00
37456;DHT22;23316;50.718;7.328;2023-08-07T05:38:04;14.90;77.10
37456;DHT22;23316;50.718;7.328;2023-08-07T05:40:32;14.90;76.90
37456;DHT22;23316;50.718;7.328;2023-08-07T05:43:02;14.90;76.70
37456;DHT22;23316;50.718;7.328;2023-08-07T05:45:31;14.90;76.90
37456;DHT22;23316;50.718;7.328;2023-08-07T05:47:59;14.90;76.60
37456;DHT22;23316;50.718;7.328;2023-08-07T05:50:26;15.00;76.60
37456;DHT22;23316;50.718;7.328;2023-08-07T05:52:54;15.00;76.20
37456;DHT22;23316;50.718;7.328;2023-08-07T05:55:21;15.00;76.20
37456;DHT22;23316;50.718;7.328;2023-08-07T05:57:48;15.00;76.20
37456;DHT22;23316;50.718;7.328;2023-08-07T06:00:16;15.00;76.00
37456;DHT22;23316;50.718;7.328;2023-08-07T06:02:46;15.00;75.80
37456;DHT22;23316;50.718;7.328;2023-08-07T06:05:14;15.00;75.80
37456;DHT22;23316;50.718;7.328;2023-08-07T06:07:42;15.10;76.00
37456;DHT22;23316;50.718;7.328;2023-08-07T06:10:09;15.10;75.80
37456;DHT22;23316;50.718;7.328;2023-08-07T06:12:36;15.10;75.80
37456;DHT22;23316;50.718;7.328;2023-08-07T06:15:04;15.20;75.70
37456;DHT22;23316;50.718;7.328;2023-08-07T06:17:32;15.20;75.50
37456;DHT22;23316;50.718;7.328;2023-08-07T06:20:00;15.20;75.40
37456;DHT22;23316;50.718;7.328;2023-08-07T06:22:30;15.20;74.80
37456;DHT22;23316;50.718;7.328;2023-08-07T06:24:58;15.30;74.80
37456;DHT22;23316;50.718;7.328;2023-08-07T06:27:25;15.30;74.60
37456;DHT22;23316;50.718;7.328;2023-08-07T06:29:53;15.30;73.90
37456;DHT22;23316;50.718;7.328;2023-08-07T06:32:21;15.30;73.60
37456;DHT22;23316;50.718;7.328;2023-08-07T06:34:48;15.40;73.30
37456;DHT22;23316;50.718;7.328;2023-08-07T06:37:17;15.40;73.10
37456;DHT22;23316;50.718;7.328;2023-08-07T06:39:44;15.40;73.00
37456;DHT22;23316;50.718;7.328;2023-08-07T06:42:12;15.40;72.90
37456;DHT22;23316;50.718;7.328;2023-08-07T06:44:39;15.30;72.50
37456;DHT22;23316;50.718;7.328;2023-08-07T06:47:07;15.40;72.30
37456;DHT22;23316;50.718;7.328;2023-08-07T06:49:34;15.40;72.30
37456;DHT22;23316;50.718;7.328;2023-08-07T06:52:02;15.40;72.30
37456;DHT22;23316;50.718;7.328;2023-08-07T06:54:31;15.40;72.50
37456;DHT22;23316;50.718;7.328;2023-08-07T06:56:58;15.30;72.60
37456;DHT22;23316;50.718;7.328;2023-08-07T06:59:25;15.30;72.10
37456;DHT22;23316;50.718;7.328;2023-08-07T07:01:52;15.30;73.00
37456;DHT22;23316;50.718;7.328;2023-08-07T07:04:20;15.30;72.50
37456;DHT22;23316;50.718;7.328;2023-08-07T07:06:47;15.30;72.60
37456;DHT22;23316;50.718;7.328;2023-08-07T07:09:14;15.30;72.80
37456;DHT22;23316;50.718;7.328;2023-08-07T07:11:44;15.30;73.00
37456;DHT22;23316;50.718;7.328;2023-08-07T07:14:11;15.30;73.30
37456;DHT22;23316;50.718;7.328;2023-08-07T07:16:38;15.30;73.30
37456;DHT22;23316;50.718;7.328;2023-08-07T07:19:08;15.30;73.40
37456;DHT22;23316;50.718;7.328;2023-08-07T07:21:36;15.20;73.50
37456;DHT22;23316;50.718;7.328;2023-08-07T07:24:03;15.20;73.50
37456;DHT22;23316;50.718;7.328;2023-08-07T07:26:31;15.20;73.90
37456;DHT22;23316;50.718;7.328;2023-08-07T07:28:59;15.20;74.00
37456;DHT22;23316;50.718;7.328;2023-08-07T07:31:26;15.20;74.20
37456;DHT22;23316;50.718;7.328;2023-08-07T07:33:54;15.20;74.50
37456;DHT22;23316;50.718;7.328;2023-08-07T07:36:21;15.20;74.70
37456;DHT22;23316;50.718;7.328;2023-08-07T07:38:48;15.10;74.50
37456;DHT22;23316;50.718;7.328;2023-08-07T07:41:15;15.10;75.50
37456;DHT22;23316;50.718;7.328;2023-08-07T07:43:43;15.10;75.10
37456;DHT22;23316;50.718;7.328;2023-08-07T07:46:12;15.10;75.20
37456;DHT22;23316;50.718;7.328;2023-08-07T07:48:39;15.00;75.30
37456;DHT22;23316;50.718;7.328;2023-08-07T07:51:06;15.00;75.50
37456;DHT22;23316;50.718;7.328;2023-08-07T07:53:33;15.10;75.90
37456;DHT22;23316;50.718;7.328;2023-08-07T07:56:00;15.00;76.10
37456;DHT22;23316;50.718;7.328;2023-08-07T07:58:28;15.00;76.10
37456;DHT22;23316;50.718;7.328;2023-08-07T08:00:55;15.00;76.20
37456;DHT22;23316;50.718;7.328;2023-08-07T08:03:24;15.00;76.20
37456;DHT22;23316;50.718;7.328;2023-08-07T08:05:51;15.00;76.50
37456;DHT22;23316;50.718;7.328;2023-08-07T08:08:19;15.00;76.30
37456;DHT22;23316;50.718;7.328;2023-08-07T08:10:46;15.00;76.40
37456;DHT22;23316;50.718;7.328;2023-08-07T08:13:14;15.00;76.50
37456;DHT22;23316;50.718;7.328;2023-08-07T08:15:41;15.00;76.70
37456;DHT22;23316;50.718;7.328;2023-08-07T08:18:09;15.00;76.80
37456;DHT22;23316;50.718;7.328;2023-08-07T08:20:37;15.00;77.20
37456;DHT22;23316;50.718;7.328;2023-08-07T08:23:05;15.00;77.60
37456;DHT22;23316;50.718;7.328;2023-08-07T08:25:32;15.00;77.70
37456;DHT22;23316;50.718;7.328;2023-08-07T08:28:00;15.00;77.90
37456;DHT22;23316;50.718;7.328;2023-08-07T08:30:28;15.00;78.00
37456;DHT22;23316;50.718;7.328;2023-08-07T08:32:56;15.00;77.90
37456;DHT22;23316;50.718;7.328;2023-08-07T08:35:23;15.00;78.10
37456;DHT22;23316;50.718;7.328;2023-08-07T08:37:52;15.10;77.80
37456;DHT22;23316;50.718;7.328;2023-08-07T08:40:20;15.10;77.90
37456;DHT22;23316;50.718;7.328;2023-08-07T08:42:47;15.10;78.00
37456;DHT22;23316;50.718;7.328;2023-08-07T08:45:16;15.10;78.00
37456;DHT22;23316;50.718;7.328;2023-08-07T08:47:46;15.10;77.60
37456;DHT22;23316;50.718;7.328;2023-08-07T08:50:17;15.10;77.80
37456;DHT22;23316;50.718;7.328;2023-08-07T08:52:45;15.20;77.90
37456;DHT22;23316;50.718;7.328;2023-08-07T08:55:14;15.20;77.80
37456;DHT22;23316;50.718;7.328;2023-08-07T08:57:42;15.20;78.20
37456;DHT22;23316;50.718;7.328;2023-08-07T09:00:11;15.20;78.00
37456;DHT22;23316;50.718;7.328;2023-08-07T09:02:44;15.20;77.80
37456;DHT22;23316;50.718;7.328;2023-08-07T09:05:11;15.30;78.00
37456;DHT22;23316;50.718;7.328;2023-08-07T09:07:39;15.30;78.00
37456;DHT22;23316;50.718;7.328;2023-08-07T09:10:08;15.30;78.00
37456;DHT22;23316;50.718;7.328;2023-08-07T09:12:41;15.30;78.10
37456;DHT22;23316;50.718;7.328;2023-08-07T09:15:11;15.30;77.20
37456;DHT22;23316;50.718;7.328;2023-08-07T09:17:40;15.40;77.30
37456;DHT22;23316;50.718;7.328;2023-08-07T09:20:09;15.40;77.20
37456;DHT22;23316;50.718;7.328;2023-08-07T09:22:38;15.30;77.30
37456;DHT22;23316;50.718;7.328;2023-08-07T09:25:06;15.40;77.70
37456;DHT22;23316;50.718;7.328;2023-08-07T09:27:38;15.40;77.90
37456;DHT22;23316;50.718;7.328;2023-08-07T09:30:06;15.40;78.00
37456;DHT22;23316;50.718;7.328;2023-08-07T09:32:36;15.50;78.00
37456;DHT22;23316;50.718;7.328;2023-08-07T09:35:06;15.50;78.30
37456;DHT22;23316;50.718;7.328;2023-08-07T09:37:36;15.50;78.30
37456;DHT22;23316;50.718;7.328;2023-08-07T09:40:05;15.50;78.40
37456;DHT22;23316;50.718;7.328;2023-08-07T09:42:37;15.60;78.70
37456;DHT22;23316;50.718;7.328;2023-08-07T09:45:19;15.60;78.40
37456;DHT22;23316;50.718;7.328;2023-08-07T09:47:47;15.60;78.00
37456;DHT22;23316;50.718;7.328;2023-08-07T09:50:16;15.70;78.20
37456;DHT22;23316;50.718;7.328;2023-08-07T09:52:46;15.70;77.90
37456;DHT22;23316;50.718;7.328;2023-08-07T09:55:14;15.70;78.00
37456;DHT22;23316;50.718;7.328;2023-08-07T09:57:43;15.80;77.50
37456;DHT22;23316;50.718;7.328;2023-08-07T10:00:12;15.80;77.30
37456;DHT22;23316;50.718;7.328;2023-08-07T10:02:41;15.80;77.00
37456;DHT22;23316;50.718;7.328;2023-08-07T10:05:10;15.80;76.90
37456;DHT22;23316;50.718;7.328;2023-08-07T10:07:37;15.90;76.30
37456;DHT22;23316;50.718;7.328;2023-08-07T10:10:06;15.90;76.20
37456;DHT22;23316;50.718;7.328;2023-08-07T10:12:34;15.90;75.90
37456;DHT22;23316;50.718;7.328;2023-08-07T10:15:04;15.90;75.90
37456;DHT22;23316;50.718;7.328;2023-08-07T10:17:33;16.00;75.10
37456;DHT22;23316;50.718;7.328;2023-08-07T10:20:01;16.00;75.30
37456;DHT22;23316;50.718;7.328;2023-08-07T10:22:30;16.00;75.50
37456;DHT22;23316;50.718;7.328;2023-08-07T10:25:01;16.10;75.90
37456;DHT22;23316;50.718;7.328;2023-08-07T10:27:30;16.10;75.30
37456;DHT22;23316;50.718;7.328;2023-08-07T10:30:02;16.20;75.70
37456;DHT22;23316;50.718;7.328;2023-08-07T10:32:32;16.20;75.80
37456;DHT22;23316;50.718;7.328;2023-08-07T10:35:03;16.30;75.30
37456;DHT22;23316;50.718;7.328;2023-08-07T10:37:39;16.40;74.60
37456;DHT22;23316;50.718;7.328;2023-08-07T10:40:07;16.40;73.80
37456;DHT22;23316;50.718;7.328;2023-08-07T10:42:55;16.40;72.90
37456;DHT22;23316;50.718;7.328;2023-08-07T10:45:23;16.50;72.90
37456;DHT22;23316;50.718;7.328;2023-08-07T10:48:07;16.50;72.60
37456;DHT22;23316;50.718;7.328;2023-08-07T10:50:46;16.60;72.50
37456;DHT22;23316;50.718;7.328;2023-08-07T10:53:19;16.60;72.70
37456;DHT22;23316;50.718;7.328;2023-08-07T10:55:47;16.70;73.10
37456;DHT22;23316;50.718;7.328;2023-08-07T10:58:24;16.80;73.00
37456;DHT22;23316;50.718;7.328;2023-08-07T11:03:36;16.90;73.70
37456;DHT22;23316;50.718;7.328;2023-08-07T11:06:04;17.10;74.00
37456;DHT22;23316;50.718;7.328;2023-08-07T11:08:31;17.10;73.30
37456;DHT22;23316;50.718;7.328;2023-08-07T11:11:04;17.20;71.40
37456;DHT22;23316;50.718;7.328;2023-08-07T11:13:32;17.30;71.00
37456;DHT22;23316;50.718;7.328;2023-08-07T11:16:00;17.40;69.30
37456;DHT22;23316;50.718;7.328;2023-08-07T11:18:29;17.40;67.90
37456;DHT22;23316;50.718;7.328;2023-08-07T11:20:58;17.50;68.40
37456;DHT22;23316;50.718;7.328;2023-08-07T11:23:27;17.60;68.40
37456;DHT22;23316;50.718;7.328;2023-08-07T11:25:55;17.70;67.90
37456;DHT22;23316;50.718;7.328;2023-08-07T11:28:23;17.70;66.80
37456;DHT22;23316;50.718;7.328;2023-08-07T11:30:52;17.80;66.90
37456;DHT22;23316;50.718;7.328;2023-08-07T11:33:21;17.90;66.90
37456;DHT22;23316;50.718;7.328;2023-08-07T11:35:49;17.90;67.70
37456;DHT22;23316;50.718;7.328;2023-08-07T11:38:31;18.00;67.00
37456;DHT22;23316;50.718;7.328;2023-08-07T11:40:59;18.00;65.30
37456;DHT22;23316;50.718;7.328;2023-08-07T11:43:27;18.10;63.80
37456;DHT22;23316;50.718;7.328;2023-08-07T11:45:56;18.10;62.90
37456;DHT22;23316;50.718;7.328;2023-08-07T11:48:24;18.20;61.50
37456;DHT22;23316;50.718;7.328;2023-08-07T11:50:52;18.20;61.90
37456;DHT22;23316;50.718;7.328;2023-08-07T11:53:20;18.30;61.90
37456;DHT22;23316;50.718;7.328;2023-08-07T11:55:53;18.30;61.50
37456;DHT22;23316;50.718;7.328;2023-08-07T11:58:22;18.40;60.60
37456;DHT22;23316;50.718;7.328;2023-08-07T12:00:49;18.40;61.60
37456;DHT22;23316;50.718;7.328;2023-08-07T12:03:27;18.50;61.10
37456;DHT22;23316;50.718;7.328;2023-08-07T12:05:56;18.50;59.50
37456;DHT22;23316;50.718;7.328;2023-08-07T12:08:23;18.50;58.40
37456;DHT22;23316;50.718;7.328;2023-08-07T12:10:52;18.50;58.20
37456;DHT22;23316;50.718;7.328;2023-08-07T12:13:23;18.60;58.80
37456;DHT22;23316;50.718;7.328;2023-08-07T12:15:51;18.60;59.90
37456;DHT22;23316;50.718;7.328;2023-08-07T12:18:19;18.70;60.00
37456;DHT22;23316;50.718;7.328;2023-08-07T12:20:49;18.70;58.70
37456;DHT22;23316;50.718;7.328;2023-08-07T12:23:17;18.80;58.10
37456;DHT22;23316;50.718;7.328;2023-08-07T12:25:45;18.80;58.10
37456;DHT22;23316;50.718;7.328;2023-08-07T12:28:14;18.90;57.40
37456;DHT22;23316;50.718;7.328;2023-08-07T12:30:44;18.90;56.60
37456;DHT22;23316;50.718;7.328;2023-08-07T12:33:12;19.00;57.60
37456;DHT22;23316;50.718;7.328;2023-08-07T12:35:40;19.10;57.50
37456;DHT22;23316;50.718;7.328;2023-08-07T12:38:07;19.20;57.10
37456;DHT22;23316;50.718;7.328;2023-08-07T12:40:35;19.30;56.90
37456;DHT22;23316;50.718;7.328;2023-08-07T12:43:03;19.30;52.80
37456;DHT22;23316;50.718;7.328;2023-08-07T12:45:32;19.40;53.10
37456;DHT22;23316;50.718;7.328;2023-08-07T12:47:59;19.50;53.90
37456;DHT22;23316;50.718;7.328;2023-08-07T12:50:28;19.50;53.40
37456;DHT22;23316;50.718;7.328;2023-08-07T12:52:56;19.60;53.10
37456;DHT22;23316;50.718;7.328;2023-08-07T12:55:24;19.60;52.80
37456;DHT22;23316;50.718;7.328;2023-08-07T12:57:52;19.70;50.90
37456;DHT22;23316;50.718;7.328;2023-08-07T13:00:20;19.80;51.00
37456;DHT22;23316;50.718;7.328;2023-08-07T13:02:50;19.80;50.90
37456;DHT22;23316;50.718;7.328;2023-08-07T13:05:20;19.80;51.10
37456;DHT22;23316;50.718;7.328;2023-08-07T13:07:48;19.80;51.70
37456;DHT22;23316;50.718;7.328;2023-08-07T13:10:17;19.90;51.20
37456;DHT22;23316;50.718;7.328;2023-08-07T13:12:45;20.00;51.00
37456;DHT22;23316;50.718;7.328;2023-08-07T13:15:14;20.00;51.50
37456;DHT22;23316;50.718;7.328;2023-08-07T13:17:43;20.10;50.70
37456;DHT22;23316;50.718;7.328;2023-08-07T13:20:13;20.10;51.30
37456;DHT22;23316;50.718;7.328;2023-08-07T13:22:41;20.20;49.60
37456;DHT22;23316;50.718;7.328;2023-08-07T13:25:09;20.20;50.10
37456;DHT22;23316;50.718;7.328;2023-08-07T13:27:37;20.20;50.10
37456;DHT22;23316;50.718;7.328;2023-08-07T13:30:06;20.20;50.30
37456;DHT22;23316;50.718;7.328;2023-08-07T13:32:34;20.30;49.90
37456;DHT22;23316;50.718;7.328;2023-08-07T13:35:02;20.20;48.90
37456;DHT22;23316;50.718;7.328;2023-08-07T13:37:30;20.20;49.00
37456;DHT22;23316;50.718;7.328;2023-08-07T13:39:58;20.20;49.90
37456;DHT22;23316;50.718;7.328;2023-08-07T13:42:25;20.20;49.90
37456;DHT22;23316;50.718;7.328;2023-08-07T13:44:54;20.20;49.80
37456;DHT22;23316;50.718;7.328;2023-08-07T13:47:21;20.10;49.80
37456;DHT22;23316;50.718;7.328;2023-08-07T13:49:51;20.10;50.30
37456;DHT22;23316;50.718;7.328;2023-08-07T13:52:19;20.10;51.00
37456;DHT22;23316;50.718;7.328;2023-08-07T13:54:48;20.00;51.20
37456;DHT22;23316;50.718;7.328;2023-08-07T13:57:16;20.10;50.90
37456;DHT22;23316;50.718;7.328;2023-08-07T13:59:43;20.10;51.00
37456;DHT22;23316;50.718;7.328;2023-08-07T14:02:10;20.10;50.90
37456;DHT22;23316;50.718;7.328;2023-08-07T14:04:38;20.10;51.00
37456;DHT22;23316;50.718;7.328;2023-08-07T14:07:05;20.10;49.80
37456;DHT22;23316;50.718;7.328;2023-08-07T14:09:33;20.10;49.40
37456;DHT22;23316;50.718;7.328;2023-08-07T14:12:01;20.10;50.00
37456;DHT22;23316;50.718;7.328;2023-08-07T14:14:29;20.20;50.90
37456;DHT22;23316;50.718;7.328;2023-08-07T14:16:56;20.20;51.10
37456;DHT22;23316;50.718;7.328;2023-08-07T14:19:26;20.20;51.10
37456;DHT22;23316;50.718;7.328;2023-08-07T14:21:53;20.30;51.30
37456;DHT22;23316;50.718;7.328;2023-08-07T14:24:21;20.40;51.40
37456;DHT22;23316;50.718;7.328;2023-08-07T14:26:48;20.50;50.50
37456;DHT22;23316;50.718;7.328;2023-08-07T14:29:17;20.50;50.00
37456;DHT22;23316;50.718;7.328;2023-08-07T14:31:44;20.60;48.30
37456;DHT22;23316;50.718;7.328;2023-08-07T14:34:11;20.60;48.80
37456;DHT22;23316;50.718;7.328;2023-08-07T14:36:38;20.70;48.90
37456;DHT22;23316;50.718;7.328;2023-08-07T14:39:06;20.70;49.50
37456;DHT22;23316;50.718;7.328;2023-08-07T14:41:34;20.50;53.60
37456;DHT22;23316;50.718;7.328;2023-08-07T14:44:01;20.40;54.00
37456;DHT22;23316;50.718;7.328;2023-08-07T14:46:30;20.10;54.50
37456;DHT22;23316;50.718;7.328;2023-08-07T14:48:57;19.80;55.20
37456;DHT22;23316;50.718;7.328;2023-08-07T14:51:24;19.50;56.10
37456;DHT22;23316;50.718;7.328;2023-08-07T14:53:52;19.30;57.60
37456;DHT22;23316;50.718;7.328;2023-08-07T14:56:19;19.10;58.60
37456;DHT22;23316;50.718;7.328;2023-08-07T14:58:46;18.90;59.40
37456;DHT22;23316;50.718;7.328;2023-08-07T15:01:13;18.80;59.90
37456;DHT22;23316;50.718;7.328;2023-08-07T15:03:42;18.60;60.60
37456;DHT22;23316;50.718;7.328;2023-08-07T15:06:09;18.60;62.30
37456;DHT22;23316;50.718;7.328;2023-08-07T15:08:37;18.50;62.40
37456;DHT22;23316;50.718;7.328;2023-08-07T15:11:04;18.40;63.00
37456;DHT22;23316;50.718;7.328;2023-08-07T15:13:31;18.40;62.90
37456;DHT22;23316;50.718;7.328;2023-08-07T15:15:59;18.40;63.20
37456;DHT22;23316;50.718;7.328;2023-08-07T15:18:26;18.40;62.80
37456;DHT22;23316;50.718;7.328;2023-08-07T15:20:55;18.30;63.20
37456;DHT22;23316;50.718;7.328;2023-08-07T15:23:23;18.30;63.10
37456;DHT22;23316;50.718;7.328;2023-08-07T15:25:50;18.30;61.50
37456;DHT22;23316;50.718;7.328;2023-08-07T15:28:17;18.30;59.90
37456;DHT22;23316;50.718;7.328;2023-08-07T15:30:47;18.30;60.20
37456;DHT22;23316;50.718;7.328;2023-08-07T15:33:16;18.30;60.90
37456;DHT22;23316;50.718;7.328;2023-08-07T15:35:43;18.40;61.50
37456;DHT22;23316;50.718;7.328;2023-08-07T15:38:12;18.50;61.30
37456;DHT22;23316;50.718;7.328;2023-08-07T15:40:40;18.50;61.10
37456;DHT22;23316;50.718;7.328;2023-08-07T15:43:07;18.60;59.70
37456;DHT22;23316;50.718;7.328;2023-08-07T15:45:36;18.70;58.90
37456;DHT22;23316;50.718;7.328;2023-08-07T15:48:03;18.70;58.80
37456;DHT22;23316;50.718;7.328;2023-08-07T15:50:31;18.80;58.30
37456;DHT22;23316;50.718;7.328;2023-08-07T15:53:02;18.90;58.10